Airfield :
LOGIN :

Register | Disclaimer

   EN    FR    IT 

 










Legend :    VFR   Marginal VFR   IFR   Intensive IFR   Very Intensive IFR
Visi :
Ceiling :
>= 8 km
>= 3000ft
5 to 8 km
1000 to 3000 ft
1500m to 5 km
500 to 1000 ft
800 to 1500m
200 to 500 ft
< 800m
< 200 ft
Symbols :   Thunderstorms  Fog  Heavy snow  Heavy precipitations  Wind > 20 kt
SIGMETs :     Misc.  Thunderstorms  Icing  Turbulence  Mountain Waves  Volcanic Ashes






- Airport Elevation : 278 ft
- IATA code : RJK


LDRI - Rijeka

CURRENT METAR :
  • 031030Z VRB04KT 9999 FEW043 23/11 Q1009

EXPIRED METARs :
  • 031000Z 26005KT 160V300 9999 FEW043 23/12 Q1009
  • 030930Z VRB03KT 9999 FEW043 23/12 Q1009
  • 030900Z 25005KT 220V290 9999 FEW043 22/15 Q1010
  • 030830Z 26003KT 220V300 9999 FEW043 22/14 Q1010
  • 030800Z 31003KT 250V020 CAVOK 20/14 Q1010
  • 030730Z VRB02KT CAVOK 21/14 Q1010

TAF TAF LDRI
Valid from the 03 at 06:00 until the 04 at 06:00 UTC


030525Z 0306/0406 VRB02KT 9999 FEW040 TX25/0313Z TN16/0403Z
PROB30
TEMPO 0306/0311 SHRA FEW040TCU
PROB40
TEMPO 0312/0316 28008KT
PROB30
TEMPO 0321/0406 TSRA FEW035CB SCT040
BECMG 0400/0402 15010KT



MET'MAP, your aeronautical weather chart ! - Copyright ORBIFLY December 2007 - Disclaimer

ORBIFLY MET'MAP TEAM :

Programming & Development : Alexandra Zaïnal
Concept & original design : Baudouin d'Aumeries
Assistance for programming : Marc-Olivier Méhu
Technical & hardware support : Manuel Goepfert

Contact : metmap@orbifly.com




SOURCES & CREDITS :

   NOAA